Time;durP1;ratioP1;P1;durP2;ratioP2;P2;SDS_P1;SDS_P2;PMS_P1;PMS_P2;Temp;Humidity;BMP_temperature;BMP_pressure;BME280_temperature;BME280_humidity;BME280_pressure;Samples;Min_cycle;Max_cycle;Signal;HPM_P1;HPM_P2
2022/10/07 00:02:24;;;;;;;12.05;6.75;;;;;;;15.37;66.72;101624.11;1743831;81;21126;-47
2022/10/07 00:04:50;;;;;;;10.60;6.70;;;;;;;15.36;66.65;101625.89;1744477;81;21134;-47
2022/10/07 00:07:17;;;;;;;10.93;6.55;;;;;;;15.35;66.61;101627.38;1739240;81;21031;-47
2022/10/07 00:09:43;;;;;;;11.68;6.55;;;;;;;15.30;66.65;101622.89;1738749;81;21130;-47
2022/10/07 00:12:10;;;;;;;11.12;6.75;;;;;;;15.28;66.71;101625.70;1744451;81;21748;-47
2022/10/07 00:14:38;;;;;;;11.10;6.75;;;;;;;15.32;66.69;101620.49;1737305;81;21071;-47
2022/10/07 00:17:06;;;;;;;11.60;7.05;;;;;;;15.35;66.51;101622.07;1736161;81;21239;-47
2022/10/07 00:19:33;;;;;;;10.13;6.65;;;;;;;15.28;66.65;101619.07;1737299;81;21003;-47
2022/10/07 00:22:00;;;;;;;13.40;7.28;;;;;;;15.18;66.74;101628.70;1747262;81;21008;-47
2022/10/07 00:24:26;;;;;;;10.50;7.25;;;;;;;15.09;67.03;101627.63;1735092;81;21095;-48
2022/10/07 00:26:52;;;;;;;11.00;6.62;;;;;;;15.08;67.19;101631.72;1745179;81;21118;-47
2022/10/07 00:29:21;;;;;;;13.83;7.40;;;;;;;15.10;67.14;101633.80;1730183;82;21130;-47
2022/10/07 00:31:50;;;;;;;10.75;7.03;;;;;;;15.09;67.02;101636.91;1700712;82;21040;-47
2022/10/07 00:34:19;;;;;;;12.18;6.92;;;;;;;14.98;67.36;101631.14;1728408;82;21091;-47
2022/10/07 00:36:49;;;;;;;10.65;7.17;;;;;;;14.96;67.60;101637.05;1720265;82;21118;-47
2022/10/07 00:39:15;;;;;;;10.18;6.83;;;;;;;14.92;67.76;101634.75;1771932;79;21058;-47
2022/10/07 00:41:49;;;;;;;10.53;5.92;;;;;;;14.92;67.83;101639.56;1769777;79;21231;-47
2022/10/07 00:44:36;;;;;;;13.28;7.97;;;;;;;14.97;67.83;101636.07;1763943;80;21078;-47
2022/10/07 00:47:12;;;;;;;9.50;6.70;;;;;;;15.00;67.90;101645.60;1772438;79;21545;-47
2022/10/07 00:49:47;;;;;;;10.75;7.28;;;;;;;14.98;67.88;101644.39;1767391;79;21071;-48
2022/10/07 00:52:14;;;;;;;13.28;7.10;;;;;;;14.90;68.02;101648.62;1761973;79;21085;-47
2022/10/07 00:54:41;;;;;;;13.38;7.45;;;;;;;14.84;68.23;101653.44;1761240;80;21774;-47
2022/10/07 00:57:08;;;;;;;11.03;6.85;;;;;;;14.81;68.31;101649.69;1769662;79;21446;-47
2022/10/07 00:59:38;;;;;;;12.05;6.78;;;;;;;14.84;68.32;101658.73;1761749;80;21723;-47
2022/10/07 01:02:06;;;;;;;13.88;6.72;;;;;;;14.83;68.43;101654.38;1769019;79;21063;-47
2022/10/07 01:04:33;;;;;;;11.33;7.62;;;;;;;14.79;68.65;101660.03;1741550;80;21048;-48
2022/10/07 01:07:01;;;;;;;9.98;7.45;;;;;;;14.72;68.58;101670.27;1779279;79;21010;-47
2022/10/07 01:09:28;;;;;;;11.28;6.97;;;;;;;14.57;68.89;101664.79;1759434;80;21116;-46
2022/10/07 01:12:16;;;;;;;10.90;7.12;;;;;;;14.48;69.10;101665.86;1771640;80;21336;-48
2022/10/07 01:15:01;;;;;;;10.23;7.25;;;;;;;14.46;69.32;101668.27;1774027;80;21085;-48
2022/10/07 01:18:08;;;;;;;11.45;7.08;;;;;;;14.42;69.57;101669.45;1761440;80;21046;-49
2022/10/07 01:20:46;;;;;;;9.38;7.58;;;;;;;14.33;69.82;101672.31;1712465;80;21118;-48
2022/10/07 01:23:33;;;;;;;11.45;7.10;;;;;;;14.22;70.23;101677.11;1765134;79;21413;-50
2022/10/07 01:26:35;;;;;;;11.28;6.83;;;;;;;14.17;70.45;101680.58;1765773;79;21066;-48
2022/10/07 01:29:20;;;;;;;10.75;7.28;;;;;;;14.19;70.69;101684.41;1710119;82;21101;-48
2022/10/07 01:32:05;;;;;;;12.35;7.10;;;;;;;14.18;70.69;101685.39;1709760;82;20987;-48
2022/10/07 01:34:33;;;;;;;;;;;;;;;14.10;71.07;101689.91;1719996;82;21258;-48
2022/10/07 01:37:01;;;;;;;10.65;6.80;;;;;;;14.04;71.45;101688.58;1714139;83;20134;-47
2022/10/07 01:39:33;;;;;;;12.90;7.30;;;;;;;14.06;71.73;101691.12;1767315;79;21061;-47
2022/10/07 01:41:59;;;;;;;10.82;6.33;;;;;;;14.07;71.75;101689.68;1776257;79;21063;-48
2022/10/07 01:44:29;;;;;;;10.55;6.80;;;;;;;14.09;71.56;101693.05;1781376;79;21542;-48
2022/10/07 01:46:56;;;;;;;11.30;7.03;;;;;;;14.14;71.72;101688.75;1740137;82;21511;-48
2022/10/07 01:49:24;;;;;;;13.50;7.78;;;;;;;14.18;71.82;101688.03;1712210;82;21032;-48
2022/10/07 01:52:26;;;;;;;9.83;6.83;;;;;;;14.20;71.99;101693.56;1777254;79;21055;-49
2022/10/07 01:55:19;;;;;;;12.05;6.90;;;;;;;14.22;71.94;101686.38;1757838;79;21090;-47
2022/10/07 01:58:05;;;;;;;10.25;7.42;;;;;;;14.20;71.90;101699.34;1791202;79;20983;-47
2022/10/07 02:00:35;;;;;;;10.90;7.45;;;;;;;14.19;71.63;101697.19;1767752;79;21142;-47
2022/10/07 02:03:33;;;;;;;12.78;7.37;;;;;;;14.16;71.54;101700.55;1813892;79;21505;-48
2022/10/07 02:06:17;;;;;;;10.45;6.92;;;;;;;14.17;71.81;101703.54;1702760;82;21059;-47
2022/10/07 02:08:53;;;;;;;9.60;7.92;;;;;;;14.14;71.80;101708.60;1679243;83;21052;-48
2022/10/07 02:11:26;;;;;;;10.40;7.87;;;;;;;14.04;71.94;101712.89;1716517;82;21059;-48
2022/10/07 02:14:23;;;;;;;12.18;7.00;;;;;;;14.01;72.04;101717.08;1788227;79;21120;-48
2022/10/07 02:17:00;;;;;;;10.78;7.45;;;;;;;13.99;71.89;101725.13;1740028;82;21534;-48
2022/10/07 02:19:42;;;;;;;13.08;8.23;;;;;;;13.92;72.09;101728.70;1718653;82;21491;-47
2022/10/07 02:22:10;;;;;;;10.50;6.83;;;;;;;13.86;72.32;101735.75;1776452;79;21012;-47
2022/10/07 02:24:37;;;;;;;13.90;7.37;;;;;;;13.79;72.55;101731.86;1735515;80;21078;-48
2022/10/07 02:27:10;;;;;;;11.73;8.08;;;;;;;13.76;72.64;101747.95;1794806;79;21137;-49
2022/10/07 02:29:38;;;;;;;12.98;8.08;;;;;;;13.80;72.64;101746.80;1725412;82;21577;-48
2022/10/07 02:32:09;;;;;;;11.05;7.50;;;;;;;13.81;72.91;101750.27;1720570;82;21075;-48
2022/10/07 02:34:35;;;;;;;11.33;8.15;;;;;;;13.80;73.12;101753.41;1742136;82;21095;-48
2022/10/07 02:37:06;;;;;;;10.55;6.97;;;;;;;13.81;73.28;101755.08;1812741;79;20980;-48
2022/10/07 02:39:32;;;;;;;10.48;6.75;;;;;;;13.83;73.12;101761.09;1791875;79;21867;-47
2022/10/07 02:42:17;;;;;;;10.85;7.58;;;;;;;13.88;72.98;101765.58;1789412;79;21086;-48
2022/10/07 02:46:11;;;;;;;11.10;7.67;;;;;;;13.90;73.66;101757.08;1795412;79;22752;-49
2022/10/07 02:48:57;;;;;;;12.85;7.92;;;;;;;14.04;73.02;101758.71;1766154;80;21030;-49
2022/10/07 02:51:38;;;;;;;11.33;8.45;;;;;;;14.08;73.11;101768.59;1740821;81;21191;-48
2022/10/07 02:54:05;;;;;;;12.23;6.80;;;;;;;14.13;73.17;101765.13;1720107;83;20991;-48
2022/10/07 02:56:33;;;;;;;11.10;7.87;;;;;;;14.24;73.03;101770.95;1713588;83;21083;-48
2022/10/07 02:59:01;;;;;;;12.93;8.23;;;;;;;14.31;72.99;101778.83;1697139;84;21146;-49
2022/10/07 03:01:31;;;;;;;14.03;7.95;;;;;;;14.33;72.94;101773.42;1708095;83;21028;-48
2022/10/07 03:03:57;;;;;;;9.78;6.95;;;;;;;14.31;72.96;101780.98;1712115;83;21782;-47
2022/10/07 03:06:28;;;;;;;10.50;7.17;;;;;;;14.33;72.95;101777.39;1710783;81;20999;-48
2022/10/07 03:08:56;;;;;;;11.20;7.20;;;;;;;14.36;72.84;101783.80;1682917;83;21138;-49
2022/10/07 03:11:23;;;;;;;13.95;8.40;;;;;;;14.40;72.82;101777.30;1709245;83;21139;-49
2022/10/07 03:13:50;;;;;;;12.35;7.85;;;;;;;14.39;72.88;101784.41;1705598;83;21106;-48
2022/10/07 03:16:18;;;;;;;13.38;7.90;;;;;;;14.47;72.68;101785.14;1711041;83;21090;-48
2022/10/07 03:18:45;;;;;;;10.30;7.00;;;;;;;14.50;72.58;101791.55;1743838;81;20963;-49
2022/10/07 03:21:21;;;;;;;;;;;;;;;14.47;72.68;101788.66;1712196;83;21133;-48
2022/10/07 03:23:52;;;;;;;10.58;7.17;;;;;;;14.46;72.84;101794.91;1697161;84;20202;-49
2022/10/07 03:26:19;;;;;;;10.50;7.00;;;;;;;14.45;72.89;101788.39;1705056;83;21117;-48
2022/10/07 03:28:46;;;;;;;8.80;6.20;;;;;;;14.41;72.62;101793.08;1722796;83;21878;-49
2022/10/07 03:31:14;;;;;;;10.30;5.60;;;;;;;14.43;72.27;101798.27;1713901;83;21074;-48
2022/10/07 03:33:42;;;;;;;11.00;5.92;;;;;;;14.54;71.48;101803.62;1721960;83;21503;-49
2022/10/07 03:36:09;;;;;;;12.43;5.50;;;;;;;14.57;70.79;101798.55;1722039;81;21061;-49
2022/10/07 03:38:37;;;;;;;8.78;4.67;;;;;;;14.50;70.74;101800.81;1722251;83;21112;-49
2022/10/07 03:41:05;;;;;;;7.97;4.72;;;;;;;14.49;70.59;101803.08;1710406;83;21182;-49
2022/10/07 03:43:32;;;;;;;9.70;5.00;;;;;;;14.51;70.29;101802.52;1740950;81;21189;-49
2022/10/07 03:46:01;;;;;;;7.17;3.92;;;;;;;14.55;69.65;101805.29;1699100;83;21114;-49
2022/10/07 03:48:29;;;;;;;8.68;4.47;;;;;;;14.56;69.32;101808.31;1770183;80;21082;-49
2022/10/07 03:50:56;;;;;;;9.78;4.70;;;;;;;14.62;68.85;101803.06;1766147;80;21553;-48
2022/10/07 03:53:26;;;;;;;8.18;4.28;;;;;;;14.62;68.69;101807.87;1759146;80;21178;-49
2022/10/07 03:55:52;;;;;;;7.92;4.37;;;;;;;14.61;68.62;101807.52;1745381;80;21094;-48
2022/10/07 03:58:19;;;;;;;7.53;4.22;;;;;;;14.59;68.73;101808.58;1765603;80;20984;-49
2022/10/07 04:00:46;;;;;;;7.00;4.40;;;;;;;14.60;68.79;101811.12;1751262;80;21004;-49
2022/10/07 04:03:14;;;;;;;8.28;4.95;;;;;;;14.61;68.70;101819.44;1765416;80;21070;-48
2022/10/07 04:05:42;;;;;;;7.85;4.45;;;;;;;14.58;68.76;101822.28;1727405;80;21137;-48
2022/10/07 04:08:11;;;;;;;8.88;5.00;;;;;;;14.54;68.89;101822.16;1749054;80;21545;-48
2022/10/07 04:10:39;;;;;;;9.83;5.42;;;;;;;14.53;69.02;101825.75;1755858;80;21090;-48
2022/10/07 04:13:06;;;;;;;6.80;4.67;;;;;;;14.53;69.17;101823.59;1757284;80;21692;-48
2022/10/07 04:15:35;;;;;;;9.85;5.33;;;;;;;14.48;69.37;101826.08;1744399;80;21012;-48
2022/10/07 04:18:02;;;;;;;8.10;4.80;;;;;;;14.44;69.58;101827.73;1755785;80;21230;-48
2022/10/07 04:20:30;;;;;;;7.40;4.45;;;;;;;14.38;69.82;101826.88;1747486;80;21022;-48
2022/10/07 04:23:00;;;;;;;7.85;5.08;;;;;;;14.39;69.82;101830.75;1746130;80;21051;-49
2022/10/07 04:25:37;;;;;;;11.93;5.22;;;;;;;14.36;70.01;101842.88;1750687;80;21149;-51
2022/10/07 04:28:07;;;;;;;9.98;4.80;;;;;;;14.31;70.17;101839.72;1753676;80;21055;-48
2022/10/07 04:30:39;;;;;;;9.50;4.25;;;;;;;14.25;70.27;101843.64;1742807;80;21821;-48
2022/10/07 04:33:07;;;;;;;12.58;5.30;;;;;;;14.24;70.32;101843.75;1750110;80;21015;-47
2022/10/07 04:35:38;;;;;;;8.68;4.80;;;;;;;14.26;70.21;101843.19;1745837;80;21094;-48
2022/10/07 04:38:09;;;;;;;9.80;5.10;;;;;;;14.25;70.24;101846.30;1751663;80;21071;-47
2022/10/07 04:40:44;;;;;;;11.85;5.78;;;;;;;14.21;70.42;101847.97;1748218;80;21046;-48
2022/10/07 04:43:25;;;;;;;8.40;5.28;;;;;;;14.15;70.47;101849.23;1751376;80;21095;-49
2022/10/07 04:46:00;;;;;;;8.08;4.62;;;;;;;14.13;70.29;101850.67;1751036;80;21207;-49
2022/10/07 04:48:27;;;;;;;8.50;4.83;;;;;;;14.13;70.19;101855.12;1723874;80;21065;-48
2022/10/07 04:50:55;;;;;;;7.60;4.50;;;;;;;14.10;70.15;101851.38;1748226;80;21172;-48
2022/10/07 04:53:22;;;;;;;8.33;4.85;;;;;;;14.07;69.94;101847.61;1694833;84;21074;-48
2022/10/07 04:55:55;;;;;;;6.90;4.42;;;;;;;14.03;69.79;101852.77;1724700;82;21224;-48
2022/10/07 04:58:19;;;;;;;10.58;4.53;;;;;;;14.05;69.56;101858.31;1744228;80;21154;-49
2022/10/07 05:00:49;;;;;;;14.87;4.65;;;;;;;14.04;68.95;101859.28;1708301;82;21091;-48
2022/10/07 05:03:18;;;;;;;9.38;4.62;;;;;;;14.02;69.00;101859.02;1755538;80;21035;-48
2022/10/07 05:05:47;;;;;;;7.90;4.37;;;;;;;14.01;68.99;101867.92;1767612;80;20996;-48
2022/10/07 05:08:16;;;;;;;10.00;4.30;;;;;;;14.02;68.75;101869.14;1757844;80;21208;-49
2022/10/07 05:10:44;;;;;;;10.85;4.42;;;;;;;14.10;68.45;101872.09;1757640;80;21365;-49
2022/10/07 05:13:14;;;;;;;9.25;3.60;;;;;;;14.12;68.29;101873.27;1746975;80;21059;-48
2022/10/07 05:15:55;;;;;;;7.30;3.87;;;;;;;14.16;68.14;101877.90;1750243;80;21110;-49
2022/10/07 05:18:22;;;;;;;9.78;4.30;;;;;;;14.17;67.91;101884.41;1747958;80;21003;-49
2022/10/07 05:20:49;;;;;;;11.15;4.10;;;;;;;14.13;67.48;101879.78;1705542;82;21221;-48
2022/10/07 05:23:19;;;;;;;6.87;3.22;;;;;;;14.09;67.42;101882.78;1755911;80;21075;-48
2022/10/07 05:25:46;;;;;;;6.55;3.45;;;;;;;14.08;67.39;101884.56;1749870;80;21058;-49
2022/10/07 05:28:14;;;;;;;7.60;3.70;;;;;;;14.15;66.59;101883.66;1745915;80;21688;-48
2022/10/07 05:30:41;;;;;;;10.30;4.25;;;;;;;14.19;66.16;101888.24;1754768;80;21003;-48
2022/10/07 05:33:09;;;;;;;10.72;3.72;;;;;;;14.21;65.82;101891.66;1752904;80;21302;-48
2022/10/07 05:35:37;;;;;;;9.40;3.40;;;;;;;14.21;65.96;101889.84;1749893;80;21110;-48
2022/10/07 05:38:04;;;;;;;8.15;3.75;;;;;;;14.21;66.17;101893.81;1747177;80;21070;-48
2022/10/07 05:40:31;;;;;;;10.88;3.98;;;;;;;14.23;66.07;101900.33;1749636;80;21102;-49
2022/10/07 05:42:57;;;;;;;7.42;3.60;;;;;;;14.28;65.90;101906.97;1748542;80;21119;-48
2022/10/07 05:45:24;;;;;;;6.17;3.00;;;;;;;14.30;65.94;101909.02;1750464;80;21313;-48
2022/10/07 05:47:51;;;;;;;8.30;3.65;;;;;;;14.31;65.87;101906.76;1758681;80;21447;-49
2022/10/07 05:50:18;;;;;;;9.00;4.03;;;;;;;14.30;65.95;101907.70;1753506;80;21315;-48
2022/10/07 05:52:45;;;;;;;10.50;3.15;;;;;;;14.34;65.79;101912.33;1756767;80;21109;-48
2022/10/07 05:55:12;;;;;;;6.67;3.20;;;;;;;14.38;65.71;101913.78;1752843;80;21001;-49
2022/10/07 05:57:40;;;;;;;7.90;3.30;;;;;;;14.43;64.93;101920.08;1763379;80;21114;-49
2022/10/07 06:00:08;;;;;;;6.58;3.05;;;;;;;14.48;64.81;101919.27;1771604;80;21090;-48
2022/10/07 06:02:37;;;;;;;10.35;2.90;;;;;;;14.49;64.17;101923.13;1762198;80;21075;-48
2022/10/07 06:05:06;;;;;;;6.28;2.85;;;;;;;14.49;63.85;101924.45;1761732;80;21491;-49
2022/10/07 06:07:32;;;;;;;11.60;3.30;;;;;;;14.50;64.25;101924.80;1764599;80;21541;-49
2022/10/07 06:15:33;;;;;;;7.85;2.90;;;;;;;14.50;63.22;101926.62;1761687;80;21003;-48
2022/10/07 06:18:00;;;;;;;7.28;3.25;;;;;;;14.55;62.71;101931.59;1754153;80;21064;-48
2022/10/07 06:20:27;;;;;;;11.80;3.15;;;;;;;14.54;62.97;101937.38;1758675;80;21131;-47
2022/10/07 06:22:57;;;;;;;8.70;3.10;;;;;;;14.55;62.06;101943.52;1766037;80;22128;-48
2022/10/07 06:25:23;;;;;;;8.90;3.08;;;;;;;14.55;62.17;101943.02;1771242;80;21321;-48
2022/10/07 06:27:56;;;;;;;9.08;2.80;;;;;;;14.55;62.08;101944.84;1761251;80;21126;-47
2022/10/07 06:30:25;;;;;;;8.88;3.17;;;;;;;14.54;61.83;101942.67;1730501;82;21054;-49
2022/10/07 06:32:52;;;;;;;8.95;2.65;;;;;;;14.56;62.06;101951.34;1760410;80;21659;-47
2022/10/07 06:35:19;;;;;;;7.25;2.70;;;;;;;14.60;62.10;101949.35;1760490;80;21134;-48
2022/10/07 06:37:47;;;;;;;6.45;2.45;;;;;;;14.72;61.76;101955.56;1757971;80;21064;-47
2022/10/07 06:40:14;;;;;;;9.28;3.02;;;;;;;14.76;61.23;101956.56;1736201;82;20999;-47
2022/10/07 06:42:41;;;;;;;8.80;2.72;;;;;;;14.79;60.96;101951.50;1755825;80;21099;-48
2022/10/07 06:45:22;;;;;;;11.10;3.08;;;;;;;14.81;61.22;101950.45;1753573;80;21759;-48
2022/10/07 06:47:52;;;;;;;7.78;3.02;;;;;;;14.82;61.25;101950.80;1747618;80;21136;-48
2022/10/07 06:50:18;;;;;;;7.08;3.15;;;;;;;14.80;59.92;101955.86;1747203;80;21103;-48
2022/10/07 06:52:45;;;;;;;8.85;2.30;;;;;;;14.78;60.29;101955.13;1750637;80;21051;-48
2022/10/07 06:55:12;;;;;;;8.98;3.10;;;;;;;14.75;60.34;101961.97;1698181;83;21118;-48
2022/10/07 06:57:40;;;;;;;7.17;3.20;;;;;;;14.78;60.23;101951.16;1748984;80;21059;-48
2022/10/07 07:00:09;;;;;;;9.70;3.15;;;;;;;14.86;59.79;101958.03;1758212;80;21174;-48
2022/10/07 07:02:36;;;;;;;6.25;2.17;;;;;;;14.90;59.87;101957.36;1753411;80;21055;-48
2022/10/07 07:05:06;;;;;;;8.85;2.70;;;;;;;14.95;59.33;101964.50;1750224;80;21023;-48
2022/10/07 07:07:33;;;;;;;5.72;2.47;;;;;;;14.98;59.58;101962.95;1715269;82;21541;-48
2022/10/07 07:10:00;;;;;;;8.23;2.80;;;;;;;14.98;59.49;101962.95;1749589;80;21074;-48
2022/10/07 07:12:28;;;;;;;8.43;3.00;;;;;;;14.98;59.91;101962.46;1746689;80;21244;-49
2022/10/07 07:14:56;;;;;;;7.85;2.75;;;;;;;15.01;60.01;101962.70;1747952;80;21082;-48
2022/10/07 07:17:23;;;;;;;8.65;2.92;;;;;;;15.05;59.74;101964.18;1751350;80;21112;-47
2022/10/07 07:19:51;;;;;;;9.63;3.50;;;;;;;15.13;59.22;101960.94;1746465;80;21542;-47
2022/10/07 07:22:18;;;;;;;9.00;2.72;;;;;;;15.16;58.87;101952.77;1749750;80;21055;-47
2022/10/07 07:24:45;;;;;;;8.08;2.92;;;;;;;15.18;59.16;101953.48;1746469;80;21094;-48
2022/10/07 07:27:13;;;;;;;6.83;2.85;;;;;;;15.25;59.27;101961.38;1753467;80;21687;-48
2022/10/07 07:29:40;;;;;;;6.95;2.80;;;;;;;15.25;58.47;101950.77;1748071;80;21036;-48
2022/10/07 07:32:07;;;;;;;10.13;3.17;;;;;;;15.26;58.50;101950.28;1745876;80;21052;-48
2022/10/07 07:34:37;;;;;;;9.50;3.40;;;;;;;15.26;58.43;101948.95;1747188;80;21134;-48
2022/10/07 07:37:04;;;;;;;7.55;2.85;;;;;;;15.25;57.62;101946.79;1760010;80;21293;-48
2022/10/07 07:39:35;;;;;;;6.60;2.52;;;;;;;15.22;57.72;101949.66;1767523;80;21054;-48
2022/10/07 07:42:09;;;;;;;9.15;2.40;;;;;;;15.22;57.70;101953.64;1756647;80;21098;-48
2022/10/07 07:44:37;;;;;;;6.83;2.58;;;;;;;15.25;57.70;101950.77;1749499;80;21051;-48
2022/10/07 07:47:07;;;;;;;9.70;2.87;;;;;;;15.27;57.51;101955.95;1750648;80;21062;-48
2022/10/07 07:49:34;;;;;;;6.85;2.40;;;;;;;15.29;57.44;101948.72;1763412;80;21088;-47
2022/10/07 07:52:03;;;;;;;7.22;2.30;;;;;;;15.34;56.98;101947.41;1745947;80;21125;-47
2022/10/07 07:54:32;;;;;;;6.15;2.65;;;;;;;15.44;57.08;101936.95;1752095;80;21082;-48
2022/10/07 07:56:59;;;;;;;8.60;2.72;;;;;;;15.49;56.06;101944.56;1734999;80;21090;-47
2022/10/07 07:59:27;;;;;;;7.25;2.60;;;;;;;15.54;56.29;101943.24;1754986;80;21487;-48
2022/10/07 08:01:55;;;;;;;9.23;2.77;;;;;;;15.56;55.84;101943.13;1750410;80;21130;-48
2022/10/07 08:04:23;;;;;;;9.43;3.00;;;;;;;15.52;55.58;101943.85;1687969;84;21130;-48
2022/10/07 08:06:51;;;;;;;11.70;2.80;;;;;;;15.52;55.70;101943.02;1747238;80;21002;-48
2022/10/07 08:09:20;;;;;;;9.85;2.25;;;;;;;15.55;56.48;101940.97;1757642;80;20985;-48
2022/10/07 08:11:47;;;;;;;8.83;2.80;;;;;;;15.54;55.58;101934.45;1760074;80;21066;-48
2022/10/07 08:14:16;;;;;;;11.90;2.35;;;;;;;15.55;55.78;101934.80;1753658;80;21016;-48
2022/10/07 08:16:46;;;;;;;7.35;2.65;;;;;;;15.60;54.73;101940.13;1749137;80;21047;-48
2022/10/07 08:19:14;;;;;;;10.88;2.87;;;;;;;15.66;53.80;101932.66;1748738;80;21054;-48
2022/10/07 08:21:41;;;;;;;10.05;2.40;;;;;;;15.72;53.52;101933.52;1752376;80;22303;-47
2022/10/07 08:24:11;;;;;;;7.22;2.00;;;;;;;15.76;53.06;101934.50;1745767;80;21114;-48
2022/10/07 08:26:38;;;;;;;7.37;2.25;;;;;;;15.81;52.62;101938.14;1755850;80;21106;-48
2022/10/07 08:29:07;;;;;;;7.60;1.75;;;;;;;15.83;51.40;101936.70;1749827;80;21027;-49
2022/10/07 08:31:34;;;;;;;5.95;2.12;;;;;;;15.84;52.20;101939.72;1752427;80;21015;-48
2022/10/07 08:34:01;;;;;;;9.08;1.55;;;;;;;15.86;52.14;101938.63;1761094;80;21495;-48
2022/10/07 08:36:31;;;;;;;9.55;2.02;;;;;;;15.89;52.70;101934.90;1771748;80;20999;-48
2022/10/07 08:38:58;;;;;;;6.85;1.95;;;;;;;15.93;52.60;101941.64;1751236;80;21226;-48
2022/10/07 08:42:00;;;;;;;6.08;1.90;;;;;;;15.96;50.74;101934.77;1758528;80;20999;-47
2022/10/07 08:44:32;;;;;;;5.00;1.37;;;;;;;16.00;50.87;101942.84;1748317;80;21687;-48
2022/10/07 08:47:07;;;;;;;7.03;1.62;;;;;;;16.01;50.42;101937.91;1753201;80;21098;-48
2022/10/07 08:49:57;;;;;;;6.85;1.98;;;;;;;16.02;50.77;101940.94;1756739;80;21100;-48
2022/10/07 08:53:01;;;;;;;4.62;1.80;;;;;;;16.00;50.01;101938.86;1759637;80;22045;-48
2022/10/07 08:55:46;;;;;;;6.28;1.65;;;;;;;15.97;49.41;101942.63;1757718;80;21016;-48
2022/10/07 08:58:44;;;;;;;7.03;1.87;;;;;;;15.95;48.83;101937.05;1751141;80;21121;-48
2022/10/07 09:01:22;;;;;;;8.10;1.80;;;;;;;15.97;49.35;101932.49;1757666;80;21135;-48
2022/10/07 09:04:30;;;;;;;8.23;1.60;;;;;;;15.97;49.68;101935.98;1765437;80;21066;-48
2022/10/07 09:07:06;;;;;;;7.78;1.70;;;;;;;16.02;48.52;101925.02;1756059;80;21244;-48
2022/10/07 09:09:37;;;;;;;4.97;1.90;;;;;;;16.04;48.21;101927.52;1756833;80;21011;-49
2022/10/07 09:12:07;;;;;;;6.35;1.65;;;;;;;16.05;49.08;101923.41;1756940;80;21070;-48
2022/10/07 09:14:42;;;;;;;7.10;1.67;;;;;;;16.07;48.77;101931.27;1775151;80;21043;-48
2022/10/07 09:17:14;;;;;;;5.80;1.60;;;;;;;16.08;48.56;101921.02;1775191;80;21129;-48
2022/10/07 09:19:45;;;;;;;5.92;1.30;;;;;;;16.10;48.91;101925.72;1760757;80;21200;-50
2022/10/07 09:22:22;;;;;;;6.85;1.70;;;;;;;16.13;48.27;101922.82;1769538;80;21404;-49
2022/10/07 09:24:52;;;;;;;7.65;2.27;;;;;;;16.18;48.08;101922.47;1761006;80;21053;-48
2022/10/07 09:27:21;;;;;;;7.22;1.77;;;;;;;16.21;47.84;101923.55;1772339;80;21043;-49
2022/10/07 09:29:47;;;;;;;7.65;1.80;;;;;;;16.25;48.38;101924.49;1759028;80;21042;-48
2022/10/07 09:32:16;;;;;;;8.35;2.00;;;;;;;16.27;48.55;101919.06;1778622;80;21530;-49
2022/10/07 09:34:42;;;;;;;8.25;1.85;;;;;;;16.30;47.65;101913.51;1757184;80;21155;-49
2022/10/07 09:37:21;;;;;;;4.53;1.77;;;;;;;16.33;47.14;101915.44;1759512;80;21546;-48
2022/10/07 09:39:51;;;;;;;8.15;1.47;;;;;;;16.37;47.30;101916.02;1770561;80;20995;-48
2022/10/07 09:42:32;;;;;;;5.22;1.92;;;;;;;16.41;47.03;101915.29;1776104;80;21151;-48
2022/10/07 09:45:33;;;;;;;5.75;1.67;;;;;;;16.46;47.20;101915.30;1766629;80;21122;-48
2022/10/07 09:48:06;;;;;;;8.23;2.10;;;;;;;16.51;46.71;101916.27;1758910;80;21011;-47
2022/10/07 09:50:40;;;;;;;10.98;2.22;;;;;;;16.57;47.38;101910.43;1748830;80;21059;-47
2022/10/07 09:53:24;;;;;;;9.23;2.02;;;;;;;16.62;47.44;101914.05;1760194;80;21702;-48
2022/10/07 09:55:52;;;;;;;7.95;2.47;;;;;;;16.67;47.94;101910.53;1764710;80;21046;-47
2022/10/07 09:58:26;;;;;;;5.28;2.02;;;;;;;16.74;47.59;101906.89;1761683;80;21809;-47
2022/10/07 10:00:55;;;;;;;10.32;2.30;;;;;;;16.80;47.76;101909.88;1754911;80;21062;-47
2022/10/07 10:03:32;;;;;;;7.78;2.00;;;;;;;16.87;46.72;101895.63;1773467;80;21060;-47
2022/10/07 10:06:05;;;;;;;8.68;2.37;;;;;;;16.92;47.26;101896.09;1779495;80;21018;-48
2022/10/07 10:08:36;;;;;;;12.23;3.00;;;;;;;17.01;47.65;101894.48;1765256;80;21059;-47
2022/10/07 10:11:08;;;;;;;6.85;2.52;;;;;;;17.08;47.17;101889.03;1762783;80;21533;-47
2022/10/07 10:13:37;;;;;;;10.88;2.08;;;;;;;17.14;46.91;101884.50;1770304;80;21165;-47
2022/10/07 10:16:36;;;;;;;6.30;2.35;;;;;;;17.15;46.45;101878.22;1759670;80;21149;-48
2022/10/07 10:19:22;;;;;;;8.05;2.20;;;;;;;17.18;46.77;101881.95;1767051;80;21066;-47
2022/10/07 10:21:56;;;;;;;5.87;2.02;;;;;;;17.23;47.22;101875.76;1750928;80;21625;-47
2022/10/07 10:27:23;;;;;;;6.08;2.27;;;;;;;17.33;46.54;101860.33;1778871;80;21098;-48
2022/10/07 10:30:08;;;;;;;8.28;2.77;;;;;;;17.35;46.97;101858.38;1744014;82;21093;-48
2022/10/07 10:33:15;;;;;;;10.80;2.45;;;;;;;17.41;46.92;101862.69;1709845;82;21148;-47
2022/10/07 10:36:13;;;;;;;7.00;2.25;;;;;;;17.45;46.90;101858.80;1729576;82;21521;-48
2022/10/07 10:39:01;;;;;;;5.30;2.30;;;;;;;17.50;47.10;101860.21;1762159;80;21156;-47
2022/10/07 10:41:51;;;;;;;9.05;2.40;;;;;;;17.53;47.09;101852.80;1762753;80;21070;-47
2022/10/07 10:44:52;;;;;;;10.10;2.90;;;;;;;17.58;47.27;101855.08;1757169;80;21004;-47
2022/10/07 10:47:35;;;;;;;6.87;2.40;;;;;;;17.61;47.03;101851.66;1740696;80;21042;-47
2022/10/07 10:50:22;;;;;;;9.13;3.05;;;;;;;17.65;47.25;101850.89;1699946;82;21076;-47
2022/10/07 10:53:06;;;;;;;11.33;2.87;;;;;;;17.70;47.33;101847.37;1722336;82;21332;-47
2022/10/07 10:56:08;;;;;;;7.72;2.65;;;;;;;17.77;47.53;101845.85;1722264;82;21177;-47
2022/10/07 10:59:07;;;;;;;7.65;2.77;;;;;;;17.82;47.38;101840.97;1719244;82;21048;-47
2022/10/07 11:01:40;;;;;;;10.70;2.90;;;;;;;17.88;46.81;101838.27;1722140;82;21090;-48
2022/10/07 11:04:37;;;;;;;11.68;2.50;;;;;;;17.89;46.56;101842.63;1697849;82;21089;-47
2022/10/07 11:07:28;;;;;;;7.87;2.33;;;;;;;17.93;46.90;101837.88;1723273;82;21232;-48
2022/10/07 11:10:14;;;;;;;7.20;2.58;;;;;;;18.01;46.99;101831.38;1726374;82;21103;-47
2022/10/07 11:12:45;;;;;;;7.75;2.83;;;;;;;18.06;46.38;101838.47;1719536;82;21063;-47
2022/10/07 11:15:25;;;;;;;5.78;2.47;;;;;;;18.11;46.45;101838.07;1722738;82;21055;-47
2022/10/07 11:17:53;;;;;;;9.83;2.92;;;;;;;18.17;45.90;101833.51;1722067;82;21148;-48
2022/10/07 11:20:37;;;;;;;8.70;2.55;;;;;;;18.20;45.91;101828.74;1718887;82;22149;-47
2022/10/07 11:23:23;;;;;;;6.03;2.00;;;;;;;18.27;46.01;101829.53;1721794;82;21066;-47
2022/10/07 11:25:59;;;;;;;7.80;2.70;;;;;;;18.33;45.69;101827.16;1711172;82;21088;-47
2022/10/07 11:28:26;;;;;;;6.33;2.72;;;;;;;18.38;45.67;101822.25;1720369;82;21126;-49
2022/10/07 11:31:23;;;;;;;13.78;2.60;;;;;;;18.43;45.21;101819.68;1720689;82;21083;-47
2022/10/07 11:34:16;;;;;;;7.97;2.80;;;;;;;18.47;45.49;101822.41;1728484;82;21255;-47
2022/10/07 11:37:09;;;;;;;7.60;2.90;;;;;;;18.51;45.08;101820.66;1717251;82;21507;-47
2022/10/07 11:39:37;;;;;;;9.10;2.90;;;;;;;18.58;44.53;101824.94;1725883;82;21073;-48
2022/10/07 11:42:28;;;;;;;7.03;2.52;;;;;;;18.62;43.84;101825.00;1723892;82;21008;-47
2022/10/07 11:45:04;;;;;;;6.95;2.25;;;;;;;18.66;43.86;101821.09;1739971;82;21117;-47
2022/10/07 11:47:41;;;;;;;10.17;2.60;;;;;;;18.72;44.44;101817.83;1737668;80;22157;-47
2022/10/07 11:50:37;;;;;;;7.15;2.47;;;;;;;18.77;43.59;101815.25;1761610;80;21031;-47
2022/10/07 11:53:08;;;;;;;10.70;2.80;;;;;;;18.81;43.96;101813.97;1748697;80;21043;-47
2022/10/07 11:55:44;;;;;;;14.43;1.98;;;;;;;18.85;42.80;101811.42;1757499;80;21047;-48
2022/10/07 11:58:35;;;;;;;8.08;2.67;;;;;;;18.91;42.71;101805.49;1771683;80;21046;-48
2022/10/07 12:01:29;;;;;;;7.90;2.62;;;;;;;18.98;42.47;101801.30;1733916;80;21780;-48